createdAt,value
2022-10-02T00:00:01.395Z,3.37
2022-10-02T00:02:47.860Z,6.73
2022-10-02T00:05:28.122Z,4.60
2022-10-02T00:07:57.698Z,3.40
2022-10-02T00:10:44.813Z,1.80
2022-10-02T00:13:56.382Z,1.23
2022-10-02T00:16:36.782Z,1.00
2022-10-02T00:19:03.962Z,2.70
2022-10-02T00:22:09.157Z,3.60
2022-10-02T00:24:59.194Z,2.20
2022-10-02T00:28:03.981Z,4.50
2022-10-02T00:30:45.027Z,2.67
2022-10-02T00:34:00.933Z,2.30
2022-10-02T00:37:15.178Z,2.20
2022-10-02T00:39:55.484Z,0.97
2022-10-02T00:42:43.597Z,1.80
2022-10-02T00:45:28.481Z,4.17
2022-10-02T00:48:51.768Z,0.80
2022-10-02T00:51:52.613Z,4.07
2022-10-02T00:55:01.467Z,1.30
2022-10-02T00:58:08.005Z,1.57
2022-10-02T01:00:34.886Z,1.40
2022-10-02T01:03:15.040Z,2.03
2022-10-02T01:05:42.134Z,2.57
2022-10-02T01:08:09.006Z,4.60
2022-10-02T01:10:38.042Z,0.97
2022-10-02T01:13:06.219Z,1.80
2022-10-02T01:15:46.874Z,1.40
2022-10-02T01:18:14.984Z,1.73
2022-10-02T01:20:47.455Z,8.50
2022-10-02T01:23:25.071Z,1.20
2022-10-02T01:25:51.991Z,1.33
2022-10-02T01:28:19.262Z,1.80
2022-10-02T01:30:51.282Z,5.40
2022-10-02T01:33:18.713Z,4.00
2022-10-02T01:35:46.289Z,3.37
2022-10-02T01:38:17.482Z,1.20
2022-10-02T01:40:44.586Z,3.53
2022-10-02T01:43:22.392Z,4.30
2022-10-02T01:46:38.767Z,2.83
2022-10-02T01:49:25.206Z,1.67
2022-10-02T01:52:48.106Z,1.20
2022-10-02T01:55:47.029Z,5.77
2022-10-02T01:58:23.255Z,7.23
2022-10-02T02:01:00.360Z,6.87
2022-10-02T02:03:27.152Z,3.20
2022-10-02T02:06:03.650Z,2.50
2022-10-02T02:08:52.883Z,1.80
2022-10-02T02:11:22.060Z,6.13
2022-10-02T02:14:22.527Z,2.90
2022-10-02T02:16:56.772Z,1.87
2022-10-02T02:19:48.216Z,2.10
2022-10-02T02:22:30.521Z,1.47
2022-10-02T02:25:03.713Z,3.03
2022-10-02T02:27:38.905Z,1.03
2022-10-02T02:30:11.868Z,1.27
2022-10-02T02:32:52.316Z,1.00
2022-10-02T02:35:31.719Z,2.50
2022-10-02T02:38:06.513Z,5.30
2022-10-02T02:40:39.590Z,0.90
2022-10-02T02:43:14.103Z,1.00
2022-10-02T02:45:54.885Z,2.73
2022-10-02T02:48:28.191Z,2.00
2022-10-02T02:51:04.727Z,3.67
2022-10-02T02:53:58.552Z,1.17
2022-10-02T02:56:27.912Z,1.40
2022-10-02T02:58:59.913Z,7.10
2022-10-02T03:01:26.909Z,1.20
2022-10-02T03:03:53.808Z,1.63
2022-10-02T03:06:34.087Z,1.20
2022-10-02T03:09:02.038Z,4.60
2022-10-02T03:11:50.069Z,2.27
2022-10-02T03:14:51.035Z,4.23
2022-10-02T03:17:42.194Z,7.63
2022-10-02T03:22:56.780Z,3.60
2022-10-02T03:25:31.727Z,6.57
2022-10-02T03:28:37.331Z,1.40
2022-10-02T03:31:06.405Z,3.47
2022-10-02T03:33:35.767Z,3.13
2022-10-02T03:36:03.443Z,2.77
2022-10-02T03:38:33.171Z,3.70
2022-10-02T03:41:00.052Z,3.00
2022-10-02T03:43:30.548Z,4.50
2022-10-02T03:45:57.482Z,5.23
2022-10-02T03:48:24.323Z,2.70
2022-10-02T03:50:51.236Z,3.03
2022-10-02T03:53:25.217Z,3.53
2022-10-02T03:56:30.293Z,2.03
2022-10-02T03:59:01.532Z,3.83
2022-10-02T04:01:39.927Z,2.30
2022-10-02T04:04:23.490Z,1.80
2022-10-02T04:07:03.001Z,4.27
2022-10-02T04:09:42.430Z,5.67
2022-10-02T04:13:16.203Z,3.90
2022-10-02T04:16:08.828Z,2.20
2022-10-02T04:18:59.587Z,2.00
2022-10-02T04:21:34.613Z,4.63
2022-10-02T04:24:30.707Z,4.50
2022-10-02T04:27:09.919Z,4.50
2022-10-02T04:29:49.168Z,1.90
2022-10-02T04:32:26.300Z,4.83
2022-10-02T04:34:54.042Z,10.80
2022-10-02T04:37:52.083Z,2.20
2022-10-02T04:40:36.818Z,5.07
2022-10-02T04:43:27.024Z,1.13
2022-10-02T04:46:40.987Z,8.10
2022-10-02T04:49:30.563Z,5.10
2022-10-02T04:52:24.054Z,2.17
2022-10-02T04:55:28.289Z,1.87
2022-10-02T04:58:35.330Z,3.70
2022-10-02T05:01:22.732Z,14.10
2022-10-02T05:04:01.877Z,2.40
2022-10-02T05:06:40.896Z,1.97
2022-10-02T05:09:29.810Z,3.17
2022-10-02T05:12:33.458Z,3.70
2022-10-02T05:15:16.211Z,1.50
2022-10-02T05:17:54.670Z,3.33
2022-10-02T05:20:43.311Z,1.20
2022-10-02T05:23:43.956Z,4.17
2022-10-02T05:26:52.126Z,1.60
2022-10-02T05:29:44.148Z,1.90
2022-10-02T05:32:20.819Z,2.10
2022-10-02T05:35:10.061Z,10.93
2022-10-02T05:38:36.879Z,4.97
2022-10-02T05:41:14.011Z,2.93
2022-10-02T05:44:11.844Z,4.53
2022-10-02T05:47:25.431Z,7.40
2022-10-02T05:50:00.716Z,6.50
2022-10-02T05:52:42.918Z,3.50
2022-10-02T05:55:32.823Z,2.77
2022-10-02T05:58:19.635Z,8.87
2022-10-02T06:00:51.104Z,1.90
2022-10-02T06:03:45.076Z,3.40
2022-10-02T06:06:20.587Z,2.50
2022-10-02T06:08:54.087Z,1.97
2022-10-02T06:11:42.091Z,3.50
2022-10-02T06:14:34.077Z,1.43
2022-10-02T06:17:34.217Z,4.07
2022-10-02T06:20:27.351Z,1.50
2022-10-02T06:23:20.350Z,1.97
2022-10-02T06:25:56.259Z,4.43
2022-10-02T06:29:03.756Z,1.47
2022-10-02T06:31:40.428Z,1.60
2022-10-02T06:34:13.043Z,2.13
2022-10-02T06:37:00.579Z,3.90
2022-10-02T06:39:54.536Z,2.20
2022-10-02T06:42:32.435Z,3.47
2022-10-02T06:45:15.895Z,1.33
2022-10-02T06:48:05.436Z,1.67
2022-10-02T06:51:08.059Z,9.20
2022-10-02T06:54:19.035Z,3.10
2022-10-02T06:57:19.588Z,1.23
2022-10-02T07:00:19.363Z,1.57
2022-10-02T07:03:17.307Z,3.13
2022-10-02T07:06:11.031Z,4.43
2022-10-02T07:08:53.252Z,4.20
2022-10-02T07:12:10.555Z,2.13
2022-10-02T07:15:10.659Z,1.47
2022-10-02T07:17:54.362Z,1.90
2022-10-02T07:20:53.304Z,1.80
2022-10-02T07:23:46.389Z,3.80
2022-10-02T07:26:32.692Z,2.90
2022-10-02T07:29:14.826Z,0.97
2022-10-02T07:31:54.504Z,1.60
2022-10-02T07:35:08.416Z,1.70
2022-10-02T07:37:54.866Z,3.07
2022-10-02T07:40:59.276Z,1.40
2022-10-02T07:43:26.645Z,4.23
2022-10-02T07:46:19.024Z,1.50
2022-10-02T07:49:26.692Z,1.40
2022-10-02T07:52:37.072Z,3.87
2022-10-02T07:55:19.462Z,6.93
2022-10-02T07:57:52.406Z,3.33
2022-10-02T08:00:23.974Z,4.20
2022-10-02T08:03:08.623Z,1.40
2022-10-02T08:05:46.071Z,1.80
2022-10-02T08:08:30.848Z,2.07
2022-10-02T08:11:21.405Z,1.37
2022-10-02T08:14:08.655Z,1.47
2022-10-02T08:16:47.673Z,1.20
2022-10-02T08:19:24.471Z,1.10
2022-10-02T08:22:14.804Z,1.40
2022-10-02T08:24:49.137Z,1.23
2022-10-02T08:27:22.841Z,1.60
2022-10-02T08:29:56.094Z,1.37
2022-10-02T08:32:30.138Z,0.80
2022-10-02T08:35:00.713Z,2.50
2022-10-02T08:37:56.307Z,0.77
2022-10-02T08:40:57.650Z,1.10
2022-10-02T08:44:00.822Z,2.60
2022-10-02T08:47:08.773Z,1.10
2022-10-02T08:49:39.924Z,2.30
2022-10-02T08:52:44.473Z,1.23
2022-10-02T08:55:54.225Z,2.17
2022-10-02T08:58:23.768Z,0.90
2022-10-02T09:01:32.624Z,0.70
2022-10-02T09:04:23.804Z,1.77
2022-10-02T09:07:17.954Z,1.10
2022-10-02T09:10:01.707Z,1.30
2022-10-02T09:13:01.809Z,1.10
2022-10-02T09:15:53.629Z,1.10
2022-10-02T09:19:00.588Z,1.53
2022-10-02T09:22:00.572Z,1.63
2022-10-02T09:25:07.910Z,1.67
2022-10-02T09:28:08.746Z,2.30
2022-10-02T09:31:16.727Z,1.00
2022-10-02T09:34:33.834Z,1.30
2022-10-02T09:37:37.357Z,2.73
2022-10-02T09:40:36.585Z,1.30
2022-10-02T09:43:35.601Z,1.03
2022-10-02T09:46:43.052Z,0.90
2022-10-02T09:50:02.978Z,1.00
2022-10-02T09:53:17.717Z,0.90
2022-10-02T09:56:22.819Z,1.00
2022-10-02T09:59:22.217Z,0.90
2022-10-02T10:02:13.510Z,1.00
2022-10-02T10:05:33.593Z,1.83
2022-10-02T10:08:37.309Z,0.97
2022-10-02T10:11:30.384Z,1.30
2022-10-02T10:14:36.909Z,1.00
2022-10-02T10:17:19.283Z,0.90
2022-10-02T10:20:22.335Z,1.20
2022-10-02T10:23:22.600Z,1.10
2022-10-02T10:26:10.585Z,1.30
2022-10-02T10:29:07.583Z,0.93
2022-10-02T10:31:49.341Z,1.20
2022-10-02T10:34:46.183Z,3.67
2022-10-02T10:37:55.573Z,1.20
2022-10-02T10:40:23.900Z,0.90
2022-10-02T10:43:28.925Z,1.20
2022-10-02T10:46:36.186Z,1.33
2022-10-02T10:49:37.871Z,1.07
2022-10-02T10:52:45.635Z,1.13
2022-10-02T10:55:29.727Z,0.90
2022-10-02T10:58:15.731Z,1.10
2022-10-02T11:00:57.187Z,1.00
2022-10-02T11:04:18.365Z,0.87
2022-10-02T11:06:58.830Z,0.83
2022-10-02T11:09:50.599Z,1.37
2022-10-02T11:13:03.058Z,9.07
2022-10-02T11:15:44.887Z,6.50
2022-10-02T11:18:24.436Z,1.57
2022-10-02T11:21:10.493Z,0.97
2022-10-02T11:23:44.774Z,1.00
2022-10-02T11:26:43.686Z,0.80
2022-10-02T11:29:55.608Z,0.93
2022-10-02T11:32:51.210Z,2.33
2022-10-02T11:35:32.229Z,0.90
2022-10-02T11:38:17.761Z,0.97
2022-10-02T11:41:20.747Z,1.10
2022-10-02T11:44:10.622Z,0.63
2022-10-02T11:47:03.414Z,1.33
2022-10-02T11:50:29.062Z,1.20
2022-10-02T11:53:58.960Z,1.60
2022-10-02T11:57:07.413Z,0.77
2022-10-02T11:59:46.975Z,1.00
2022-10-02T12:02:24.585Z,0.83
2022-10-02T12:05:08.315Z,1.10
2022-10-02T12:08:01.577Z,1.20
2022-10-02T12:11:17.105Z,1.77
2022-10-02T12:14:26.004Z,1.10
2022-10-02T12:17:28.348Z,1.00
2022-10-02T12:21:03.153Z,8.20
2022-10-02T12:24:20.709Z,3.63
2022-10-02T12:27:09.578Z,0.90
2022-10-02T12:30:04.034Z,1.80
2022-10-02T12:32:45.805Z,0.70
2022-10-02T12:35:31.467Z,1.00
2022-10-02T12:38:23.881Z,1.30
2022-10-02T12:41:03.123Z,0.87
2022-10-02T12:43:55.849Z,1.10
2022-10-02T12:46:52.695Z,1.00
2022-10-02T12:49:27.713Z,0.90
2022-10-02T12:52:50.029Z,1.33
2022-10-02T12:55:54.422Z,1.03
2022-10-02T12:58:42.476Z,1.10
2022-10-02T13:01:30.720Z,0.90
2022-10-02T13:04:43.716Z,1.07
2022-10-02T13:07:58.310Z,1.00
2022-10-02T13:11:10.137Z,0.90
2022-10-02T13:14:07.606Z,3.60
2022-10-02T13:17:16.744Z,1.97
2022-10-02T13:20:10.699Z,0.97
2022-10-02T13:22:58.760Z,0.97
2022-10-02T13:25:34.934Z,1.20
2022-10-02T13:28:22.889Z,1.37
2022-10-02T13:31:35.654Z,1.00
2022-10-02T13:34:26.499Z,1.13
2022-10-02T13:37:41.059Z,1.33
2022-10-02T13:40:28.467Z,1.07
2022-10-02T13:43:20.621Z,1.53
2022-10-02T13:46:08.694Z,1.23
2022-10-02T13:48:44.895Z,1.30
2022-10-02T13:52:02.137Z,1.07
2022-10-02T13:54:55.097Z,0.87
2022-10-02T13:58:19.596Z,1.17
2022-10-02T14:00:59.425Z,2.43
2022-10-02T14:03:49.014Z,0.73
2022-10-02T14:06:33.634Z,0.97
2022-10-02T14:09:23.211Z,1.27
2022-10-02T14:13:00.290Z,1.40
2022-10-02T14:15:55.417Z,0.77
2022-10-02T14:19:00.989Z,0.97
2022-10-02T14:21:30.922Z,0.97
2022-10-02T14:24:43.177Z,1.20
2022-10-02T14:27:50.622Z,1.27
2022-10-02T14:30:31.945Z,0.97
2022-10-02T14:33:57.558Z,2.40
2022-10-02T14:36:54.289Z,1.10
2022-10-02T14:39:39.309Z,2.60
2022-10-02T14:42:32.506Z,2.00
2022-10-02T14:45:24.104Z,1.07
2022-10-02T14:48:25.096Z,1.10
2022-10-02T14:51:12.894Z,1.40
2022-10-02T14:54:05.054Z,1.07
2022-10-02T14:56:53.242Z,1.40
2022-10-02T14:59:48.958Z,1.63
2022-10-02T15:02:34.629Z,1.20
2022-10-02T15:05:41.829Z,0.93
2022-10-02T15:08:17.861Z,0.93
2022-10-02T15:10:49.099Z,1.30
2022-10-02T15:13:26.666Z,1.43
2022-10-02T15:16:42.897Z,1.20
2022-10-02T15:19:40.135Z,2.50
2022-10-02T15:22:24.992Z,1.30
2022-10-02T15:24:58.746Z,2.03
2022-10-02T15:27:27.664Z,1.43
2022-10-02T15:30:04.568Z,1.10
2022-10-02T15:32:52.812Z,1.20
2022-10-02T15:36:06.907Z,2.97
2022-10-02T15:39:13.985Z,1.43
2022-10-02T15:41:48.563Z,0.90
2022-10-02T15:44:45.986Z,1.47
2022-10-02T15:47:23.429Z,1.30
2022-10-02T15:50:23.033Z,1.60
2022-10-02T15:53:29.987Z,1.87
2022-10-02T15:56:25.884Z,2.80
2022-10-02T15:59:10.525Z,3.13
2022-10-02T16:02:26.742Z,2.50
2022-10-02T16:05:29.288Z,1.30
2022-10-02T16:08:34.582Z,2.13
2022-10-02T16:11:37.706Z,1.40
2022-10-02T16:14:42.184Z,3.80
2022-10-02T16:17:41.094Z,2.20
2022-10-02T16:20:37.875Z,2.23
2022-10-02T16:23:43.184Z,2.17
2022-10-02T16:26:42.219Z,1.93
2022-10-02T16:29:47.631Z,4.43
2022-10-02T16:32:38.856Z,1.77
2022-10-02T16:35:48.562Z,1.77
2022-10-02T16:38:22.578Z,3.57
2022-10-02T16:41:38.244Z,6.27
2022-10-02T16:44:29.264Z,3.60
2022-10-02T16:47:33.432Z,4.10
2022-10-02T16:50:19.137Z,1.93
2022-10-02T16:53:15.025Z,3.10
2022-10-02T16:55:58.087Z,11.17
2022-10-02T16:58:32.305Z,3.70
2022-10-02T17:01:07.146Z,3.23
2022-10-02T17:04:05.119Z,2.60
2022-10-02T17:06:40.443Z,2.60
2022-10-02T17:09:27.638Z,3.87
2022-10-02T17:12:13.322Z,2.30
2022-10-02T17:14:54.875Z,3.53
2022-10-02T17:17:44.361Z,3.70
2022-10-02T17:20:26.177Z,2.53
2022-10-02T17:23:13.742Z,2.27
2022-10-02T17:26:07.092Z,3.57
2022-10-02T17:28:53.511Z,2.73
2022-10-02T17:31:58.640Z,3.50
2022-10-02T17:34:44.777Z,3.10
2022-10-02T17:37:17.409Z,2.10
2022-10-02T17:40:31.181Z,2.47
2022-10-02T17:43:19.251Z,3.33
2022-10-02T17:46:11.039Z,2.83
2022-10-02T17:49:03.412Z,2.47
2022-10-02T17:52:20.268Z,4.13
2022-10-02T17:55:44.229Z,3.97
2022-10-02T17:58:48.695Z,3.50
2022-10-02T18:01:39.229Z,5.03
2022-10-02T18:04:52.283Z,4.03
2022-10-02T18:08:03.359Z,3.53
2022-10-02T18:11:03.280Z,5.00
2022-10-02T18:13:56.064Z,5.17
2022-10-02T18:16:47.542Z,4.77
2022-10-02T18:19:30.163Z,4.53
2022-10-02T18:22:14.729Z,10.80
2022-10-02T18:25:11.688Z,9.60
2022-10-02T18:28:26.546Z,5.43
2022-10-02T18:31:53.911Z,7.70
2022-10-02T18:34:58.693Z,16.70
2022-10-02T18:37:50.475Z,9.73
2022-10-02T18:40:28.743Z,5.70
2022-10-02T18:43:18.409Z,5.83
2022-10-02T18:46:29.830Z,6.50
2022-10-02T18:49:35.700Z,5.87
2022-10-02T18:52:34.814Z,9.53
2022-10-02T18:55:26.186Z,6.80
2022-10-02T18:58:04.259Z,6.97
2022-10-02T19:01:01.850Z,6.07
2022-10-02T19:03:55.537Z,7.53
2022-10-02T19:06:54.897Z,11.77
2022-10-02T19:09:29.364Z,13.70
2022-10-02T19:12:12.440Z,11.37
2022-10-02T19:14:42.454Z,8.60
2022-10-02T19:17:24.127Z,10.57
2022-10-02T19:19:50.909Z,11.60
2022-10-02T19:22:28.526Z,16.10
2022-10-02T19:25:16.698Z,13.17
2022-10-02T19:27:50.574Z,14.70
2022-10-02T19:30:30.318Z,17.87
2022-10-02T19:33:02.535Z,22.07
2022-10-02T19:35:38.645Z,14.57
2022-10-02T19:38:34.739Z,11.50
2022-10-02T19:41:09.990Z,10.43
2022-10-02T19:43:56.524Z,12.37
2022-10-02T19:46:54.150Z,12.20
2022-10-02T19:49:31.003Z,10.50
2022-10-02T19:51:58.163Z,12.07
2022-10-02T19:54:36.965Z,11.87
2022-10-02T19:57:15.216Z,13.37
2022-10-02T19:59:48.429Z,12.50
2022-10-02T20:02:25.107Z,14.83
2022-10-02T20:04:55.661Z,12.47
2022-10-02T20:07:25.407Z,11.97
2022-10-02T20:09:58.413Z,12.40
2022-10-02T20:12:41.993Z,9.47
2022-10-02T20:15:48.430Z,11.60
2022-10-02T20:18:15.657Z,12.00
2022-10-02T20:20:46.988Z,9.00
2022-10-02T20:23:23.855Z,10.17
2022-10-02T20:25:58.376Z,11.17
2022-10-02T20:28:52.244Z,11.10
2022-10-02T20:31:36.751Z,10.60
2022-10-02T20:34:23.558Z,9.17
2022-10-02T20:37:06.189Z,9.13
2022-10-02T20:39:40.275Z,8.73
2022-10-02T20:42:13.479Z,8.90
2022-10-02T20:44:40.656Z,9.07
2022-10-02T20:47:31.665Z,7.53
2022-10-02T20:50:31.335Z,6.60
2022-10-02T20:53:19.357Z,7.97
2022-10-02T20:55:58.908Z,7.20
2022-10-02T20:59:16.926Z,6.17
2022-10-02T21:02:07.174Z,9.53
2022-10-02T21:05:20.464Z,6.37
2022-10-02T21:08:13.783Z,5.27
2022-10-02T21:11:13.274Z,8.63
2022-10-02T21:14:10.879Z,5.67
2022-10-02T21:17:18.130Z,8.13
2022-10-02T21:20:33.329Z,4.93
2022-10-02T21:23:37.012Z,12.57
2022-10-02T21:26:06.374Z,4.67
2022-10-02T21:29:25.989Z,7.03
2022-10-02T21:32:24.912Z,5.10
2022-10-02T21:35:16.764Z,7.33
2022-10-02T21:38:10.277Z,5.50
2022-10-02T21:40:48.316Z,7.77
2022-10-02T21:44:10.305Z,13.40
2022-10-02T21:47:10.236Z,7.90
2022-10-02T21:50:10.691Z,8.20
2022-10-02T21:53:18.897Z,8.10
2022-10-02T21:56:03.565Z,5.70
2022-10-02T21:58:56.480Z,5.90
2022-10-02T22:02:07.909Z,6.37
2022-10-02T22:05:17.224Z,6.00
2022-10-02T22:07:55.697Z,5.70
2022-10-02T22:10:32.856Z,6.63
2022-10-02T22:13:36.703Z,6.50
2022-10-02T22:16:16.897Z,6.33
2022-10-02T22:18:52.954Z,6.57
2022-10-02T22:22:01.696Z,5.80
2022-10-02T22:24:46.479Z,5.73
2022-10-02T22:27:40.718Z,7.37
2022-10-02T22:30:27.577Z,5.33
2022-10-02T22:33:26.335Z,4.50
2022-10-02T22:36:25.052Z,5.67
2022-10-02T22:39:01.012Z,3.80
2022-10-02T22:41:31.454Z,7.20
2022-10-02T22:44:17.978Z,8.60
2022-10-02T22:46:56.197Z,8.07
2022-10-02T22:49:43.496Z,4.63
2022-10-02T22:52:25.506Z,7.00
2022-10-02T22:55:02.949Z,4.77
2022-10-02T22:58:30.582Z,5.27
2022-10-02T23:01:24.276Z,4.50
2022-10-02T23:04:21.561Z,5.53
2022-10-02T23:07:02.150Z,4.87
2022-10-02T23:10:00.654Z,8.07
2022-10-02T23:12:54.749Z,4.30
2022-10-02T23:16:07.119Z,4.70
2022-10-02T23:18:54.191Z,5.47
2022-10-02T23:21:58.470Z,5.10
2022-10-02T23:24:35.868Z,3.53
2022-10-02T23:27:02.601Z,4.77
2022-10-02T23:30:04.332Z,4.53
2022-10-02T23:32:52.748Z,3.63
2022-10-02T23:35:28.248Z,5.43
2022-10-02T23:38:17.030Z,4.10
2022-10-02T23:41:17.913Z,6.37
2022-10-02T23:44:38.993Z,3.37
2022-10-02T23:47:17.613Z,4.80
2022-10-02T23:49:55.773Z,3.40
2022-10-02T23:52:53.277Z,3.30
2022-10-02T23:55:51.754Z,6.33
2022-10-02T23:59:00.306Z,3.00
